Lamont, IA (50650)

5:13 PM CDT on July 25, 2014 (GMT -0500)
KIASTRAW2 Elev 1220 ft | 42.68 °N, 91.53 °W | Change Station

Current weather conditions updated 4 minutes ago

Overcast
Overcast
74.4 °F
Feels Like 75 °F
N
8.0
Wind Variable Wind from SE
Gusts 9.0 mph

Tomorrow is forecast to be Much Warmer than today.

Today
High -- | Low -- °F
--% Chance of Precip.
Yesterday
High -- | Low -- °F
Precip. -- in
5:51 AM 8:34 PM
Waning Crescent, 1% visible
Pressure 29.85 in
Visibility 10.0 miles
Clouds Mostly Cloudy 2400 ft
Overcast 2900 ft
Heat Index 75 °F
Dew Point 68 °F
Humidity 79%
Rainfall -999.00 in
Snow Depth Not available.
UV 2 out of 12
Pollen 3.40 out of 12
Air Quality Not available.
Flu Activity Not available.
METAR KOLZ 252155Z AUTO 16008KT 10SM BKN024 OVC029 25/20 A2985 RMK AO2

More Conditions Fewer Conditions

Pressure 29.85 in
Visibility 10.0 miles
Clouds Mostly Cloudy 2400 ft
Overcast 2900 ft
Heat Index 75 °F
Dew Point 68 °F
Humidity 79%
Rainfall -999.00 in
Snow Depth Not available.
UV 2 out of 12
Pollen 3.40 out of 12
Air Quality Not available.
Flu Activity Not available.
METAR KOLZ 252155Z AUTO 16008KT 10SM BKN024 OVC029 25/20 A2985 RMK AO2

More Conditions Fewer Conditions

10-Day Weather Forecast

Almanac

Astronomy

Jul. 25, 2014 Rise Set
Actual Time 5:51 AM CDT 8:34 PM CDT
Civil Twilight 5:18 AM CDT 9:06 PM CDT
Nautical Twilight 4:37 AM CDT 9:47 PM CDT
Astronomical Twilight 3:50 AM CDT 10:34 PM CDT
Moon 4:52 AM CDT 7:30 PM CDT
Length of Visible Light 15h 48m
Length of Day
14h 42m
Tomorrow will be 1m 58s shorter.
Waning Crescent, 1% of the Moon is Illuminated
Today
Waning Crescent
Jul 26
New
Aug 3
First Quarter
Aug 10
Full
Aug 17
Last Quarter

Today's Extremes

State Highs State Lows

Community

WunderPhotos

Upload Photos

1,737,415 photos uploaded!

Nearby

Snow Depth

Station Depth Elevation
No new snow has been reported.

Earthquake Activity

City Distance Mag. Time & Date
No recent earthquake activity has been reported nearby.
Minimum magnitude displayed is 2.5.

Coastal Water Temperatures

Place Temperature
No Stations Reporting

Nearby Weather Stations

Station Location Temp. Heat Index Dew Point Humidity Wind Precip. Elev Updated Type
Strawberry Point, IA 74.4 °F 75 °F 68 °F 79% SE  at  8.0 mph 0.00 in / hr 1220 ft 5:08 PM CDT Normal
Northridge Addition, Independence, IA 78.7 °F 81 °F 69 °F 73% SE  at  3.1 mph 0.00 in / hr 929 ft 5:13 PM CDT Rapid Fire
Maplewood Dr, Oelwein, IA 78.3 °F 81 °F 69 °F 74% SE  at  3.4 mph 0.00 in / hr 1135 ft 5:12 PM CDT Rapid Fire
Terrace Drive SE, Independence, IA 76.6 °F 78 °F 69 °F 77% WSW  at  0.0 mph 0.00 in / hr 940 ft 5:13 PM CDT Rapid Fire
Rural Northern Linn County, Coggon, IA 76.8 °F - - - SE  at  3.1 mph - / hr 909 ft 5:10 PM CDT Normal

Show More Stations Show Fewer Stations